createdAt,value
2019-01-09T00:02:47.890Z,100613.52
2019-01-09T00:05:36.764Z,100623.97
2019-01-09T00:08:25.698Z,100628.38
2019-01-09T00:11:14.577Z,100617.73
2019-01-09T00:14:03.814Z,100621.03
2019-01-09T00:16:52.746Z,100615.00
2019-01-09T00:19:41.643Z,100611.47
2019-01-09T00:22:30.556Z,100608.48
2019-01-09T00:25:19.418Z,100609.28
2019-01-09T00:28:08.240Z,100601.34
2019-01-09T00:30:50.168Z,100619.09
2019-01-09T00:33:19.690Z,100617.73
2019-01-09T00:36:08.598Z,100618.84
2019-01-09T00:38:57.501Z,100617.79
2019-01-09T00:41:46.373Z,100618.33
2019-01-09T00:44:35.275Z,100616.45
2019-01-09T00:47:24.175Z,100620.86
2019-01-09T00:50:13.265Z,100630.17
2019-01-09T00:52:55.078Z,100577.86
2019-01-09T00:55:43.951Z,100628.83
2019-01-09T00:58:32.894Z,100626.09
2019-01-09T01:01:21.825Z,100626.67
2019-01-09T01:04:31.573Z,100632.92
2019-01-09T01:07:41.349Z,100611.06
2019-01-09T01:11:08.863Z,100628.83
2019-01-09T01:14:36.406Z,100634.30
2019-01-09T01:18:03.900Z,100628.55
2019-01-09T01:21:13.661Z,100619.52
2019-01-09T01:24:41.181Z,100617.05
2019-01-09T01:28:08.743Z,100527.00
2019-01-09T01:31:36.331Z,100618.16
2019-01-09T01:34:46.068Z,100621.41
2019-01-09T01:37:55.861Z,100623.28
2019-01-09T01:41:05.624Z,100543.53
2019-01-09T01:44:15.414Z,100643.44
2019-01-09T01:47:25.151Z,100641.78
2019-01-09T01:50:52.666Z,100598.09
2019-01-09T01:54:20.199Z,100622.00
2019-01-09T01:57:47.689Z,100624.98
2019-01-09T02:00:30.787Z,100615.25
2019-01-09T02:03:40.556Z,100625.50
2019-01-09T02:10:45.057Z,100621.91
2019-01-09T02:13:54.803Z,100626.27
2019-01-09T02:17:04.555Z,100618.36
2019-01-09T02:20:14.272Z,100636.13
2019-01-09T02:23:41.799Z,100624.62
2019-01-09T02:27:09.326Z,100578.38
2019-01-09T02:30:36.864Z,100633.58
2019-01-09T02:33:25.700Z,100633.05
2019-01-09T02:35:55.137Z,100625.89
2019-01-09T02:38:43.977Z,100637.66
2019-01-09T02:41:32.775Z,100548.13
2019-01-09T02:44:21.695Z,100639.81
2019-01-09T02:47:10.525Z,100642.02
2019-01-09T02:49:59.382Z,100645.86
2019-01-09T02:52:48.514Z,100641.50
2019-01-09T02:55:37.379Z,100641.78
2019-01-09T02:58:26.562Z,100639.11
2019-01-09T03:01:15.389Z,100604.23
2019-01-09T03:04:04.290Z,100619.75
2019-01-09T03:06:53.212Z,100584.17
2019-01-09T03:09:41.994Z,100628.30
2019-01-09T03:12:30.837Z,100624.22
2019-01-09T03:15:19.755Z,100633.84
2019-01-09T03:18:01.667Z,100654.36
2019-01-09T03:20:50.525Z,100656.33
2019-01-09T03:23:39.353Z,100649.30
2019-01-09T03:26:28.149Z,100578.70
2019-01-09T03:29:17.063Z,100664.94
2019-01-09T03:32:05.981Z,100563.67
2019-01-09T03:34:54.883Z,100652.47
2019-01-09T03:37:43.799Z,100658.27
2019-01-09T03:40:32.731Z,100655.28
2019-01-09T03:43:21.624Z,100653.66
2019-01-09T03:46:10.478Z,100641.64
2019-01-09T03:48:59.283Z,100646.31
2019-01-09T03:51:48.111Z,100649.90
2019-01-09T03:54:37.013Z,100649.90
2019-01-09T03:57:06.470Z,100644.44
2019-01-09T03:59:55.388Z,100647.16
2019-01-09T04:02:44.199Z,100614.77
2019-01-09T04:05:33.050Z,100622.83
2019-01-09T04:08:02.550Z,100647.68
2019-01-09T04:10:43.820Z,100640.00
2019-01-09T04:13:32.668Z,100638.89
2019-01-09T04:16:21.480Z,100624.13
2019-01-09T04:19:03.552Z,100619.20
2019-01-09T04:21:52.384Z,100627.14
2019-01-09T04:24:40.897Z,100630.70
2019-01-09T04:27:29.711Z,100644.09
2019-01-09T04:30:18.549Z,100639.51
2019-01-09T04:33:07.347Z,100663.22
2019-01-09T04:35:56.269Z,100664.84
2019-01-09T04:38:45.078Z,100669.73
2019-01-09T04:41:33.978Z,100677.13
2019-01-09T04:44:22.865Z,100667.83
2019-01-09T04:47:11.696Z,100674.61
2019-01-09T04:49:52.973Z,100675.44
2019-01-09T04:52:41.745Z,100683.63
2019-01-09T04:55:30.580Z,100686.36
2019-01-09T04:58:19.389Z,100681.17
2019-01-09T05:01:08.232Z,100682.28
2019-01-09T05:03:57.134Z,100675.77
2019-01-09T05:06:46.004Z,100676.62
2019-01-09T05:09:34.778Z,100664.92
2019-01-09T05:12:23.609Z,100657.31
2019-01-09T05:15:12.439Z,100660.61
2019-01-09T05:18:01.277Z,100668.03
2019-01-09T05:20:50.129Z,100664.27
2019-01-09T05:23:39.025Z,100663.20
2019-01-09T05:26:27.843Z,100651.24
2019-01-09T05:29:16.701Z,100558.75
2019-01-09T05:32:05.518Z,100658.45
2019-01-09T05:34:54.329Z,100664.76
2019-01-09T05:37:43.183Z,100663.93
2019-01-09T05:40:32.053Z,100678.95
2019-01-09T05:43:13.584Z,100688.77
2019-01-09T05:46:02.479Z,100684.92
2019-01-09T05:48:32.014Z,100679.72
2019-01-09T05:51:20.922Z,100687.06
2019-01-09T05:54:09.709Z,100684.86
2019-01-09T05:56:58.551Z,100592.18
2019-01-09T05:59:47.392Z,100671.39
2019-01-09T06:02:36.330Z,100665.11
2019-01-09T06:05:15.777Z,100657.38
2019-01-09T06:08:04.661Z,100675.11
2019-01-09T06:10:53.480Z,100682.72
2019-01-09T06:13:42.316Z,100686.55
2019-01-09T06:16:31.124Z,100664.45
2019-01-09T06:19:19.963Z,100687.99
2019-01-09T06:22:08.454Z,100646.55
2019-01-09T06:24:57.373Z,100655.67
2019-01-09T06:27:46.235Z,100573.73
2019-01-09T06:30:35.059Z,100663.56
2019-01-09T06:33:23.891Z,100676.50
2019-01-09T06:36:12.837Z,100598.62
2019-01-09T06:39:01.650Z,100676.17
2019-01-09T06:41:43.463Z,100676.51
2019-01-09T06:44:12.932Z,100671.95
2019-01-09T06:47:01.776Z,100684.33
2019-01-09T06:49:50.586Z,100689.58
2019-01-09T06:52:39.436Z,100695.63
2019-01-09T06:55:28.270Z,100701.66
2019-01-09T06:58:17.122Z,100707.38
2019-01-09T07:00:59.051Z,100712.83
2019-01-09T07:03:47.930Z,100693.69
2019-01-09T07:06:36.808Z,100705.95
2019-01-09T07:09:27.141Z,100699.08
2019-01-09T07:11:56.615Z,100700.97
2019-01-09T07:14:45.462Z,100707.78
2019-01-09T07:17:34.389Z,100712.14
2019-01-09T07:20:23.307Z,100706.69
2019-01-09T07:23:11.776Z,100713.50
2019-01-09T07:26:00.645Z,100710.50
2019-01-09T07:28:49.487Z,100657.98
2019-01-09T07:31:31.149Z,100630.05
2019-01-09T07:34:00.603Z,100723.00
2019-01-09T07:36:49.454Z,100710.98
2019-01-09T07:39:38.258Z,100713.17
2019-01-09T07:42:27.106Z,100719.73
2019-01-09T07:44:56.582Z,100723.26
2019-01-09T07:47:45.425Z,100732.80
2019-01-09T07:50:34.232Z,100725.45
2019-01-09T07:53:23.078Z,100730.39
2019-01-09T07:56:11.943Z,100732.59
2019-01-09T07:59:00.754Z,100732.91
2019-01-09T08:01:49.675Z,100725.09
2019-01-09T08:04:38.506Z,100739.98
2019-01-09T08:07:27.342Z,100745.18
2019-01-09T08:10:16.248Z,100752.27
2019-01-09T08:13:05.087Z,100746.23
2019-01-09T08:15:53.895Z,100749.48
2019-01-09T08:18:42.770Z,100738.31
2019-01-09T08:21:31.608Z,100752.95
2019-01-09T08:24:39.513Z,100752.89
2019-01-09T08:27:28.333Z,100753.97
2019-01-09T08:30:17.317Z,100762.10
2019-01-09T08:32:46.917Z,100758.80
2019-01-09T08:35:29.042Z,100750.03
2019-01-09T08:38:17.850Z,100706.89
2019-01-09T08:41:06.983Z,100757.33
2019-01-09T08:43:55.804Z,100779.69
2019-01-09T08:46:44.696Z,100774.75
2019-01-09T08:49:33.543Z,100778.83
2019-01-09T08:52:22.395Z,100789.17
2019-01-09T08:54:51.895Z,100700.77
2019-01-09T08:57:40.739Z,100791.00
2019-01-09T09:00:29.556Z,100792.88
2019-01-09T09:03:18.537Z,100798.87
2019-01-09T09:06:07.466Z,100800.80
2019-01-09T09:08:57.899Z,100806.27
2019-01-09T09:11:46.812Z,100802.44
2019-01-09T09:14:35.749Z,100811.99
2019-01-09T09:17:24.568Z,100760.22
2019-01-09T09:20:13.749Z,100819.08
2019-01-09T09:22:43.327Z,100831.62
2019-01-09T09:25:32.250Z,100826.43
2019-01-09T09:28:21.055Z,100829.42
2019-01-09T09:31:09.909Z,100752.67
2019-01-09T09:33:51.672Z,100827.21
2019-01-09T09:36:21.164Z,100831.31
2019-01-09T09:38:50.672Z,100837.02
2019-01-09T09:41:39.511Z,100839.44
2019-01-09T09:44:28.327Z,100838.60
2019-01-09T09:47:17.217Z,100830.94
2019-01-09T09:49:46.679Z,100845.09
2019-01-09T09:52:28.115Z,100859.00
2019-01-09T09:55:17.041Z,100862.52
2019-01-09T09:58:06.167Z,100860.83
2019-01-09T10:00:35.907Z,100852.61
2019-01-09T10:03:24.755Z,100850.08
2019-01-09T10:05:54.203Z,100846.44
2019-01-09T10:08:29.230Z,100850.47
2019-01-09T10:11:14.328Z,100849.34
2019-01-09T10:13:43.980Z,100842.47
2019-01-09T10:16:32.844Z,100856.06
2019-01-09T10:19:21.699Z,100848.91
2019-01-09T10:22:10.530Z,100855.91
2019-01-09T10:24:59.355Z,100856.08
2019-01-09T10:27:28.909Z,100853.22
2019-01-09T10:30:37.061Z,100863.22
2019-01-09T10:33:06.524Z,100863.41
2019-01-09T10:35:55.451Z,100860.85
2019-01-09T10:38:38.089Z,100856.41
2019-01-09T10:41:08.026Z,100853.91
2019-01-09T10:43:56.838Z,100847.02
2019-01-09T10:46:47.487Z,100843.67
2019-01-09T10:49:36.367Z,100854.78
2019-01-09T10:52:06.073Z,100857.44
2019-01-09T10:54:55.272Z,100842.62
2019-01-09T10:57:24.747Z,100849.72
2019-01-09T11:00:33.054Z,100848.89
2019-01-09T11:03:21.879Z,100843.42
2019-01-09T11:06:10.686Z,100848.95
2019-01-09T11:08:52.680Z,100848.44
2019-01-09T11:11:41.479Z,100844.62
2019-01-09T11:14:30.347Z,100767.44
2019-01-09T11:17:20.094Z,100846.30
2019-01-09T11:19:49.637Z,100845.62
2019-01-09T11:22:19.096Z,100853.23
2019-01-09T11:25:28.860Z,100848.27
2019-01-09T11:28:37.058Z,100844.11
2019-01-09T11:31:46.807Z,100854.17
2019-01-09T11:34:35.683Z,100857.67
2019-01-09T11:37:17.500Z,100849.47
2019-01-09T11:40:27.232Z,100841.80
2019-01-09T11:43:16.041Z,100846.76
2019-01-09T11:45:45.517Z,100838.52
2019-01-09T11:48:46.690Z,100834.41
2019-01-09T11:51:24.981Z,100843.94
2019-01-09T11:53:54.480Z,100822.27
2019-01-09T11:56:43.299Z,100821.92
2019-01-09T11:59:32.132Z,100810.11
2019-01-09T12:02:01.618Z,100808.40
2019-01-09T12:04:50.441Z,100809.22
2019-01-09T12:07:39.297Z,100725.55
2019-01-09T12:10:30.285Z,100789.39
2019-01-09T12:12:59.431Z,100815.38
2019-01-09T12:16:09.184Z,100805.72
2019-01-09T12:19:17.419Z,100815.02
2019-01-09T12:22:06.248Z,100808.97
2019-01-09T12:24:55.047Z,100802.89
2019-01-09T12:30:39.674Z,100812.19
2019-01-09T12:33:43.132Z,100810.79
2019-01-09T12:36:19.032Z,100813.78
2019-01-09T12:39:13.199Z,100818.91
2019-01-09T12:41:58.654Z,100824.64
2019-01-09T12:45:06.868Z,100817.79
2019-01-09T12:47:36.496Z,100822.95
2019-01-09T12:50:25.778Z,100821.84
2019-01-09T12:53:14.752Z,100817.44
2019-01-09T12:56:03.576Z,100823.71
2019-01-09T12:58:52.471Z,100830.53
2019-01-09T13:01:21.952Z,100830.78
2019-01-09T13:04:10.825Z,100839.77
2019-01-09T13:06:52.038Z,100837.82
2019-01-09T13:09:22.312Z,100856.10
2019-01-09T13:11:52.875Z,100850.56
2019-01-09T13:14:41.716Z,100850.53
2019-01-09T13:17:30.526Z,100855.39
2019-01-09T13:20:19.418Z,100844.08
2019-01-09T13:23:08.274Z,100835.51
2019-01-09T13:25:57.144Z,100835.16
2019-01-09T13:28:46.012Z,100862.20
2019-01-09T13:31:34.799Z,100845.47
2019-01-09T13:34:04.370Z,100856.36
2019-01-09T13:36:33.834Z,100857.19
2019-01-09T13:39:30.698Z,100869.27
2019-01-09T13:41:55.306Z,100872.81
2019-01-09T13:44:24.802Z,100866.82
2019-01-09T13:46:54.283Z,100870.17
2019-01-09T13:49:25.288Z,100864.44
2019-01-09T13:52:14.164Z,100865.30
2019-01-09T13:55:02.958Z,100869.47
2019-01-09T13:57:51.790Z,100877.98
2019-01-09T14:00:25.101Z,100883.20
2019-01-09T14:03:13.943Z,100877.22
2019-01-09T14:06:02.823Z,100878.94
2019-01-09T14:08:51.626Z,100858.94
2019-01-09T14:11:40.555Z,100885.03
2019-01-09T14:14:29.423Z,100883.97
2019-01-09T14:17:18.270Z,100885.89
2019-01-09T14:20:28.018Z,100884.01
2019-01-09T14:23:16.839Z,100890.86
2019-01-09T14:26:05.737Z,100882.89
2019-01-09T14:28:54.678Z,100817.38
2019-01-09T14:31:43.508Z,100887.26
2019-01-09T14:34:32.313Z,100883.97
2019-01-09T14:37:01.815Z,100885.03
2019-01-09T14:39:50.719Z,100891.02
2019-01-09T14:42:39.723Z,100888.28
2019-01-09T14:45:31.079Z,100888.53
2019-01-09T14:48:19.948Z,100892.38
2019-01-09T14:51:08.875Z,100899.81
2019-01-09T14:53:57.683Z,100901.17
2019-01-09T14:59:42.241Z,100915.77
2019-01-09T15:02:31.050Z,100889.77
2019-01-09T15:05:20.026Z,100905.16
2019-01-09T15:08:08.933Z,100923.83
2019-01-09T15:10:57.886Z,100851.52
2019-01-09T15:13:46.662Z,100899.05
2019-01-09T15:16:35.496Z,100916.39
2019-01-09T15:19:24.374Z,100937.09
2019-01-09T15:22:13.238Z,100929.57
2019-01-09T15:24:42.747Z,100938.55
2019-01-09T15:27:31.616Z,100954.48
2019-01-09T15:30:43.710Z,100951.48
2019-01-09T15:33:32.501Z,100955.67
2019-01-09T15:36:21.353Z,100964.71
2019-01-09T15:39:03.305Z,100965.31
2019-01-09T15:41:32.776Z,100979.86
2019-01-09T15:47:17.573Z,100978.83
2019-01-09T15:50:27.285Z,100981.30
2019-01-09T15:53:16.164Z,100983.53
2019-01-09T15:56:05.133Z,100980.27
2019-01-09T15:58:53.970Z,100997.30
2019-01-09T16:04:38.546Z,100989.23
2019-01-09T16:07:08.121Z,100981.09
2019-01-09T16:09:57.231Z,100978.18
2019-01-09T16:12:47.680Z,100985.61
2019-01-09T16:15:36.558Z,100992.78
2019-01-09T16:18:46.059Z,100990.64
2019-01-09T16:21:34.892Z,100984.66
2019-01-09T16:24:23.720Z,100983.02
2019-01-09T16:27:12.554Z,100993.71
2019-01-09T16:29:42.041Z,100993.98
2019-01-09T16:32:30.915Z,100996.44
2019-01-09T16:35:20.737Z,100992.87
2019-01-09T16:38:05.878Z,100996.44
2019-01-09T16:40:54.782Z,101000.81
2019-01-09T16:43:43.606Z,100993.14
2019-01-09T16:46:32.513Z,101006.28
2019-01-09T16:49:27.879Z,101003.28
2019-01-09T16:52:11.918Z,101002.77
2019-01-09T16:55:00.751Z,100979.42
2019-01-09T16:57:51.779Z,100927.95
2019-01-09T17:01:02.569Z,101015.92
2019-01-09T17:03:51.423Z,101017.00
2019-01-09T17:07:01.117Z,100961.72
2019-01-09T17:09:49.991Z,101024.43
2019-01-09T17:12:38.873Z,101029.38
2019-01-09T17:15:20.541Z,101034.59
2019-01-09T17:18:09.469Z,101034.07
2019-01-09T17:20:39.066Z,101046.12
2019-01-09T17:23:27.876Z,101037.66
2019-01-09T17:26:36.228Z,101037.44
2019-01-09T17:29:26.543Z,101046.77
2019-01-09T17:31:56.051Z,101051.72
2019-01-09T17:35:05.583Z,101043.83
2019-01-09T17:37:54.498Z,101056.72
2019-01-09T17:40:43.330Z,101048.27
2019-01-09T17:43:32.182Z,101046.38
2019-01-09T17:46:21.039Z,101061.20
2019-01-09T17:49:09.947Z,101062.89
2019-01-09T17:51:58.870Z,101065.38
2019-01-09T17:54:47.721Z,101070.63
2019-01-09T17:57:36.561Z,101075.58
2019-01-09T18:00:46.413Z,101080.56
2019-01-09T18:03:28.542Z,101087.67
2019-01-09T18:06:17.352Z,101086.62
2019-01-09T18:09:27.183Z,101081.50
2019-01-09T18:12:16.035Z,101086.45
2019-01-09T18:15:25.829Z,101053.34
2019-01-09T18:18:14.752Z,101098.84
2019-01-09T18:20:44.311Z,101101.35
2019-01-09T18:23:34.952Z,101109.06
2019-01-09T18:26:23.746Z,101109.60
2019-01-09T18:28:53.409Z,101115.10
2019-01-09T18:32:03.195Z,101106.19
2019-01-09T18:34:52.405Z,101126.63
2019-01-09T18:38:02.159Z,101122.31
2019-01-09T18:41:29.708Z,101115.58
2019-01-09T18:44:42.330Z,101133.59
2019-01-09T18:48:09.954Z,101137.98
2019-01-09T18:51:41.485Z,101106.47
2019-01-09T18:54:22.854Z,101145.66
2019-01-09T18:56:52.496Z,101154.66
2019-01-09T18:59:41.383Z,101160.94
2019-01-09T19:02:30.351Z,101168.59
2019-01-09T19:04:59.847Z,101162.05
2019-01-09T19:07:48.733Z,101157.41
2019-01-09T19:10:39.184Z,101166.97
2019-01-09T19:13:28.107Z,101164.23
2019-01-09T19:16:17.132Z,101164.23
2019-01-09T19:19:06.114Z,101172.16
2019-01-09T19:21:35.749Z,101106.85
2019-01-09T19:24:24.784Z,101171.63
2019-01-09T19:27:13.755Z,101174.08
2019-01-09T19:29:43.455Z,101173.81
2019-01-09T19:32:32.395Z,101170.30
2019-01-09T19:35:21.351Z,101177.10
2019-01-09T19:38:10.289Z,101177.93
2019-01-09T19:40:59.771Z,101106.62
2019-01-09T19:46:46.122Z,101193.47
2019-01-09T19:49:36.926Z,101190.47
2019-01-09T19:52:25.948Z,101194.03
2019-01-09T19:55:15.108Z,101118.34
2019-01-09T19:58:04.147Z,101200.32
2019-01-09T20:00:53.715Z,101211.50
2019-01-09T20:03:42.547Z,101206.34
2019-01-09T20:06:31.558Z,101214.25
2019-01-09T20:09:01.131Z,101131.47
2019-01-09T20:11:50.159Z,101218.06
2019-01-09T20:14:39.171Z,101214.78
2019-01-09T20:17:21.152Z,101226.25
2019-01-09T20:20:29.420Z,101230.61
2019-01-09T20:23:18.483Z,101233.06
2019-01-09T20:26:07.722Z,101229.00
2019-01-09T20:28:56.619Z,101235.54
2019-01-09T20:31:45.550Z,101236.36
2019-01-09T20:34:34.447Z,101242.38
2019-01-09T20:37:23.399Z,101240.47
2019-01-09T20:40:33.202Z,101242.38
2019-01-09T20:43:22.177Z,101253.30
2019-01-09T20:46:11.075Z,101257.93
2019-01-09T20:48:59.992Z,101261.76
2019-01-09T20:51:42.023Z,101195.80
2019-01-09T20:54:31.063Z,101260.66
2019-01-09T20:57:19.973Z,101264.73
2019-01-09T21:00:28.762Z,101265.83
2019-01-09T21:03:38.493Z,101265.81
2019-01-09T21:06:20.425Z,101271.80
2019-01-09T21:09:09.383Z,101279.47
2019-01-09T21:11:58.213Z,101276.45
2019-01-09T21:14:47.135Z,101289.00
2019-01-09T21:17:36.099Z,101250.58
2019-01-09T21:20:25.094Z,101291.45
2019-01-09T21:23:14.003Z,101292.27
2019-01-09T21:26:02.982Z,101291.71
2019-01-09T21:28:51.922Z,101294.16
2019-01-09T21:31:40.779Z,101212.95
2019-01-09T21:34:31.655Z,101294.95
2019-01-09T21:37:20.456Z,101293.30
2019-01-09T21:40:29.285Z,101297.11
2019-01-09T21:43:18.268Z,101292.45
2019-01-09T21:46:07.157Z,101290.80
2019-01-09T21:48:56.050Z,101295.44
2019-01-09T21:51:44.947Z,101297.89
2019-01-09T21:54:33.788Z,101300.63
2019-01-09T21:57:22.667Z,101290.55
2019-01-09T22:00:32.514Z,101301.72
2019-01-09T22:03:21.365Z,101302.28
2019-01-09T22:06:02.943Z,101264.42
2019-01-09T22:08:51.779Z,101305.86
2019-01-09T22:11:40.675Z,101314.31
2019-01-09T22:14:29.528Z,101266.63
2019-01-09T22:17:18.346Z,101322.53
2019-01-09T22:20:28.087Z,101328.52
2019-01-09T22:23:16.944Z,101325.79
2019-01-09T22:26:05.952Z,101330.98
2019-01-09T22:28:35.460Z,101337.80
2019-01-09T22:31:24.381Z,101336.44
2019-01-09T22:34:13.170Z,101349.27
2019-01-09T22:37:01.997Z,101341.08
2019-01-09T22:39:43.751Z,101339.17
2019-01-09T22:42:32.699Z,101341.34
2019-01-09T22:45:21.609Z,101342.18
2019-01-09T22:48:10.473Z,101339.98
2019-01-09T22:50:59.273Z,101334.52
2019-01-09T22:53:47.800Z,101335.61
2019-01-09T22:56:36.620Z,101343.00
2019-01-09T22:59:25.468Z,101335.37
2019-01-09T23:02:14.568Z,101341.36
2019-01-09T23:05:03.402Z,101358.00
2019-01-09T23:07:52.325Z,101356.92
2019-01-09T23:10:41.278Z,101358.82
2019-01-09T23:13:30.166Z,101343.28
2019-01-09T23:16:19.019Z,101357.48
2019-01-09T23:19:08.016Z,101356.11
2019-01-09T23:21:56.809Z,101359.66
2019-01-09T23:24:45.658Z,101357.20
2019-01-09T23:27:34.536Z,101368.13
2019-01-09T23:30:26.443Z,101370.32
2019-01-09T23:33:15.331Z,101365.95
2019-01-09T23:39:12.489Z,101371.42
2019-01-09T23:42:01.383Z,101338.40
2019-01-09T23:44:50.244Z,101371.98
2019-01-09T23:47:39.187Z,101381.78
2019-01-09T23:50:28.045Z,101380.97
2019-01-09T23:53:16.959Z,101383.95
2019-01-09T23:55:46.448Z,101392.96
2019-01-09T23:58:35.255Z,101391.33
